This is the latest recevied weather packets stored in our database for station/object IU4KCH-20. If no packets are shown the sender has not sent any weather packets the latest 10 day(s).
| Time | Temp. | Humidity | Pressure | Rain* | Wind** | Luminosity | Snow |
|---|---|---|---|---|---|---|---|
| 1777478968 | 27.78° C | 37% | 1012 hPa | - | - | - | - |
| 1777478067 | 27.78° C | 37% | 1011.9 hPa | - | - | - | - |
| 1777477167 | 28.89° C | 35% | 1011.8 hPa | - | - | - | - |
| 1777476266 | 30° C | 34% | 1011.9 hPa | - | - | - | - |
| 1777475365 | 29.44° C | 36% | 1011.9 hPa | - | - | - | - |
| 1777474464 | 30° C | 36% | 1012 hPa | - | - | - | - |
| 1777473563 | 31.67° C | 31% | 1011.9 hPa | - | - | - | - |
| 1777472662 | 38.89° C | 23% | 1012 hPa | - | - | - | - |
| 1777471762 | 38.33° C | 22% | 1012.3 hPa | - | - | - | - |
| 1777470861 | 39.44° C | 21% | 1012.3 hPa | - | - | - | - |
| 1777469960 | 37.78° C | 23% | 1012.5 hPa | - | - | - | - |
| 1777469059 | 38.89° C | 22% | 1012.5 hPa | - | - | - | - |
| 1777468158 | 38.89° C | 24% | 1012.7 hPa | - | - | - | - |
| 1777467257 | 36.67° C | 27% | 1012.8 hPa | - | - | - | - |
| 1777466356 | 31.11° C | 34% | 1012.9 hPa | - | - | - | - |
| 1777465456 | 33.89° C | 30% | 1012.7 hPa | - | - | - | - |
| 1777464555 | 31.67° C | 34% | 1013 hPa | - | - | - | - |
| 1777463654 | 29.44° C | 38% | 1012.9 hPa | - | - | - | - |
| 1777462753 | 28.33° C | 40% | 1013.1 hPa | - | - | - | - |
| 1777461852 | 27.22° C | 41% | 1013.2 hPa | - | - | - | - |
| 1777460952 | 26.67° C | 42% | 1013.4 hPa | - | - | - | - |
| 1777460051 | 25.56° C | 45% | 1013.5 hPa | - | - | - | - |
| 1777459150 | 25.56° C | 47% | 1013.5 hPa | - | - | - | - |
| 1777458249 | 25° C | 49% | 1013.8 hPa | - | - | - | - |
| 1777457348 | 23.89° C | 51% | 1013.8 hPa | - | - | - | - |
* Rain since midnight (hover to see other rain measurements)
** Current wind speed in m/s (hover to see current wind gust speed)